Decoded Metar for PAPN (PILOT POINT in AK, USA) (IATA:PNP) | Meteo·Mobile Aviation Weather
aviador You're here:

PAPN Decoded Metar

PILOT POINT in AK, USA
Report Time2018-12-18 16:56:00
UTC Time2018-12-18 17:24:48
Flight Rules mvfr MVFR
Wind040° at 12 kt
W.Decomp.*RWY 07: 8.2 kt HW 8.8 kt LCW
W.Rank040° ranks 20
Current wind is above 040° avg. (7.7)
Visibility9999 m
Phenomena:N/A
Clouds:Overcast 026 Hf
Expected CloudBase > 1,600 ft AGL from Temp-Dew spread
Ceiling2,600 ft
Temp-16°C (ISA -31)
Dew Point-20°C (72% RH)
AAT-23.9°C
QNH1000 hPa
Density Alt-3,389 ft
Elevation59 ft
Report Wrong Elevation
Raw Report
PAPN 181656Z AUTO 04012KT 10SM OVC026 M16/M20 A2952 RMK AO2 SLP999
T11561200 PWINO FZRANO=

Extra information for PAPN:More info

Metar Taf Metar & Taf Last 4 Metars F.Rules Stats Wind Profile Meteogram Temp Stats Airport Information Weather charts Add Link Nearby VenuesMetar ALERT Operation Metar Decoded Social comments

AIRNAV info for PAPN